createdAt,value
2018-09-27T00:00:59.970Z,0.00
2018-09-27T00:01:59.949Z,0.00
2018-09-27T00:02:59.922Z,0.00
2018-09-27T00:03:59.893Z,0.00
2018-09-27T00:04:59.869Z,0.00
2018-09-27T00:05:59.842Z,0.00
2018-09-27T00:06:59.818Z,0.00
2018-09-27T00:07:59.796Z,0.00
2018-09-27T00:08:59.764Z,0.00
2018-09-27T00:09:59.740Z,0.00
2018-09-27T00:10:59.716Z,0.00
2018-09-27T00:11:59.687Z,0.00
2018-09-27T00:12:59.664Z,0.00
2018-09-27T00:13:59.639Z,0.00
2018-09-27T00:14:59.610Z,0.00
2018-09-27T00:15:59.589Z,0.00
2018-09-27T00:16:59.761Z,0.00
2018-09-27T00:17:59.534Z,0.00
2018-09-27T00:18:59.709Z,0.00
2018-09-27T00:19:59.685Z,0.00
2018-09-27T00:20:59.455Z,0.00
2018-09-27T00:21:59.434Z,0.00
2018-09-27T00:23:41.755Z,0.00
2018-09-27T00:24:41.729Z,0.00
2018-09-27T00:25:41.502Z,0.00
2018-09-27T00:26:41.475Z,0.00
2018-09-27T00:27:41.448Z,0.00
2018-09-27T00:28:41.423Z,0.00
2018-09-27T00:29:41.396Z,0.00
2018-09-27T00:30:41.378Z,0.00
2018-09-27T00:31:41.345Z,0.00
2018-09-27T00:32:41.318Z,0.00
2018-09-27T00:33:41.292Z,0.00
2018-09-27T00:34:41.267Z,0.00
2018-09-27T00:35:41.241Z,0.00
2018-09-27T00:36:41.215Z,0.00
2018-09-27T00:37:41.189Z,0.00
2018-09-27T00:38:41.163Z,0.00
2018-09-27T00:39:41.137Z,0.00
2018-09-27T00:40:41.111Z,0.00
2018-09-27T00:41:41.088Z,0.00
2018-09-27T00:42:41.060Z,0.00
2018-09-27T00:43:41.033Z,0.00
2018-09-27T00:44:41.005Z,0.00
2018-09-27T00:45:40.982Z,0.00
2018-09-27T00:46:40.956Z,0.00
2018-09-27T00:47:40.930Z,0.00
2018-09-27T00:48:40.903Z,0.00
2018-09-27T00:49:40.878Z,0.00
2018-09-27T00:50:40.853Z,0.00
2018-09-27T00:51:40.829Z,0.00
2018-09-27T00:52:40.808Z,0.00
2018-09-27T00:53:40.775Z,0.00
2018-09-27T00:54:40.748Z,0.00
2018-09-27T00:55:40.725Z,0.00
2018-09-27T00:56:40.697Z,0.00
2018-09-27T00:57:40.671Z,0.00
2018-09-27T00:58:40.646Z,0.00
2018-09-27T00:59:40.619Z,0.00
2018-09-27T01:00:40.609Z,0.00
2018-09-27T01:01:40.568Z,0.00
2018-09-27T01:02:40.543Z,0.00
2018-09-27T01:03:40.525Z,0.00
2018-09-27T01:04:40.490Z,0.00
2018-09-27T01:05:40.470Z,0.00
2018-09-27T01:06:40.439Z,0.00
2018-09-27T01:07:40.412Z,0.00
2018-09-27T01:08:40.386Z,0.00
2018-09-27T01:09:40.367Z,0.00
2018-09-27T01:10:40.337Z,0.00
2018-09-27T01:11:40.317Z,0.00
2018-09-27T01:12:40.284Z,0.00
2018-09-27T01:13:40.259Z,0.00
2018-09-27T01:14:40.233Z,0.00
2018-09-27T01:15:40.208Z,0.00
2018-09-27T01:16:40.181Z,0.00
2018-09-27T01:17:40.156Z,0.00
2018-09-27T01:18:40.130Z,0.00
2018-09-27T01:19:40.105Z,0.00
2018-09-27T01:20:40.082Z,0.00
2018-09-27T01:21:40.051Z,0.00
2018-09-27T01:22:40.028Z,0.00
2018-09-27T01:23:40.005Z,0.00
2018-09-27T01:24:39.974Z,0.00
2018-09-27T01:25:39.950Z,0.00
2018-09-27T01:26:39.924Z,0.00
2018-09-27T01:27:39.900Z,0.00
2018-09-27T01:28:39.888Z,0.00
2018-09-27T01:29:39.848Z,0.00
2018-09-27T01:30:39.821Z,0.00
2018-09-27T01:31:39.797Z,0.00
2018-09-27T01:32:39.769Z,0.00
2018-09-27T01:33:39.744Z,0.00
2018-09-27T01:34:39.721Z,0.00
2018-09-27T01:35:39.997Z,0.00
2018-09-27T01:36:39.668Z,0.00
2018-09-27T01:37:39.641Z,0.00
2018-09-27T01:38:39.622Z,0.00
2018-09-27T01:39:39.591Z,0.00
2018-09-27T01:40:39.564Z,0.00
2018-09-27T01:41:39.542Z,0.00
2018-09-27T01:42:39.513Z,0.00
2018-09-27T01:43:39.487Z,0.00
2018-09-27T01:44:39.461Z,0.00
2018-09-27T01:45:39.436Z,0.00
2018-09-27T01:46:39.412Z,0.00
2018-09-27T01:47:39.387Z,0.00
2018-09-27T01:48:39.359Z,0.00
2018-09-27T01:49:39.333Z,0.00
2018-09-27T01:50:39.308Z,0.00
2018-09-27T01:51:39.282Z,0.00
2018-09-27T01:52:39.257Z,0.00
2018-09-27T01:53:39.230Z,0.00
2018-09-27T01:54:39.206Z,0.00
2018-09-27T01:55:39.180Z,0.00
2018-09-27T01:56:39.153Z,0.00
2018-09-27T01:57:39.126Z,0.00
2018-09-27T01:58:39.101Z,0.00
2018-09-27T01:59:39.076Z,0.00
2018-09-27T02:00:39.054Z,0.00
2018-09-27T02:01:39.025Z,0.00
2018-09-27T02:02:39.001Z,0.00
2018-09-27T02:03:38.973Z,0.00
2018-09-27T02:04:38.955Z,0.00
2018-09-27T02:05:40.023Z,0.00
2018-09-27T02:06:38.897Z,0.00
2018-09-27T02:07:38.871Z,0.00
2018-09-27T02:08:38.844Z,0.00
2018-09-27T02:09:38.819Z,0.00
2018-09-27T02:10:38.793Z,0.00
2018-09-27T02:11:38.768Z,0.00
2018-09-27T02:12:38.741Z,0.00
2018-09-27T02:13:38.715Z,0.00
2018-09-27T02:14:38.692Z,0.00
2018-09-27T02:15:38.665Z,0.00
2018-09-27T02:16:38.640Z,0.00
2018-09-27T02:17:38.613Z,0.00
2018-09-27T02:18:38.587Z,0.00
2018-09-27T02:19:38.561Z,0.00
2018-09-27T02:20:38.536Z,0.00
2018-09-27T02:21:38.512Z,0.00
2018-09-27T02:22:38.485Z,0.00
2018-09-27T02:23:38.459Z,0.00
2018-09-27T02:24:38.433Z,0.00
2018-09-27T02:25:38.407Z,0.00
2018-09-27T02:26:38.381Z,0.00
2018-09-27T02:27:38.356Z,0.00
2018-09-27T02:28:38.330Z,0.00
2018-09-27T02:29:38.305Z,0.00
2018-09-27T02:30:38.481Z,0.00
2018-09-27T02:31:38.255Z,0.00
2018-09-27T02:32:38.227Z,0.00
2018-09-27T02:33:38.202Z,0.00
2018-09-27T02:34:38.176Z,0.00
2018-09-27T02:35:38.151Z,0.00
2018-09-27T02:36:38.127Z,0.00
2018-09-27T02:37:38.100Z,0.00
2018-09-27T02:38:38.080Z,0.00
2018-09-27T02:39:38.048Z,0.00
2018-09-27T02:40:38.025Z,0.00
2018-09-27T02:41:37.996Z,0.00
2018-09-27T02:42:37.971Z,0.00
2018-09-27T02:43:37.945Z,0.00
2018-09-27T02:44:37.921Z,0.00
2018-09-27T02:45:37.894Z,0.00
2018-09-27T02:46:37.867Z,0.00
2018-09-27T02:47:37.843Z,0.00
2018-09-27T02:48:37.818Z,0.00
2018-09-27T02:49:37.789Z,0.00
2018-09-27T02:50:37.765Z,0.00
2018-09-27T02:51:37.739Z,0.00
2018-09-27T02:52:37.719Z,0.00
2018-09-27T02:53:37.690Z,0.00
2018-09-27T02:54:37.661Z,0.00
2018-09-27T02:55:37.653Z,0.00
2018-09-27T02:56:37.610Z,0.00
2018-09-27T02:57:37.587Z,0.00
2018-09-27T02:58:37.559Z,0.00
2018-09-27T02:59:37.534Z,0.00
2018-09-27T03:00:37.508Z,0.00
2018-09-27T03:01:37.482Z,0.00
2018-09-27T03:02:37.461Z,0.00
2018-09-27T03:03:37.434Z,0.00
2018-09-27T03:04:37.412Z,0.00
2018-09-27T03:05:37.379Z,0.00
2018-09-27T03:06:37.354Z,0.00
2018-09-27T03:07:37.331Z,0.00
2018-09-27T03:08:37.308Z,0.00
2018-09-27T03:09:37.276Z,0.00
2018-09-27T03:10:37.254Z,0.00
2018-09-27T03:11:37.229Z,0.00
2018-09-27T03:12:37.204Z,0.00
2018-09-27T03:13:37.173Z,0.00
2018-09-27T03:14:37.152Z,0.00
2018-09-27T03:15:37.122Z,0.00
2018-09-27T03:16:37.096Z,0.00
2018-09-27T03:17:37.071Z,0.00
2018-09-27T03:18:37.046Z,0.00
2018-09-27T03:19:37.021Z,0.00
2018-09-27T03:20:36.998Z,0.00
2018-09-27T03:21:36.969Z,0.00
2018-09-27T03:22:36.943Z,0.00
2018-09-27T03:23:36.917Z,0.00
2018-09-27T03:24:36.892Z,0.00
2018-09-27T03:25:36.867Z,0.00
2018-09-27T03:26:36.841Z,0.00
2018-09-27T03:27:36.816Z,0.00
2018-09-27T03:28:36.787Z,0.00
2018-09-27T03:29:36.775Z,0.00
2018-09-27T03:30:36.737Z,0.00
2018-09-27T03:31:36.716Z,0.00
2018-09-27T03:32:36.684Z,0.00
2018-09-27T03:33:36.660Z,0.00
2018-09-27T03:34:36.637Z,0.00
2018-09-27T03:35:36.610Z,0.00
2018-09-27T03:36:36.581Z,0.00
2018-09-27T03:37:36.556Z,0.00
2018-09-27T03:38:36.531Z,0.00
2018-09-27T03:39:36.512Z,0.00
2018-09-27T03:40:36.523Z,0.00
2018-09-27T03:41:36.455Z,0.00
2018-09-27T03:42:36.427Z,0.00
2018-09-27T03:43:36.403Z,0.00
2018-09-27T03:44:36.376Z,0.00
2018-09-27T03:45:36.353Z,0.00
2018-09-27T03:46:36.326Z,0.00
2018-09-27T03:47:36.299Z,0.00
2018-09-27T03:48:36.273Z,0.00
2018-09-27T03:49:36.246Z,0.00
2018-09-27T03:50:36.221Z,0.00
2018-09-27T03:51:36.195Z,0.00
2018-09-27T03:52:36.171Z,0.00
2018-09-27T03:53:36.149Z,0.00
2018-09-27T03:54:36.119Z,0.00
2018-09-27T03:55:36.094Z,0.00
2018-09-27T03:56:36.066Z,0.00
2018-09-27T03:57:36.039Z,0.00
2018-09-27T03:58:36.419Z,0.00
2018-09-27T03:59:36.195Z,0.00
2018-09-27T04:00:35.963Z,0.00
2018-09-27T04:01:35.938Z,0.00
2018-09-27T04:02:35.912Z,0.00
2018-09-27T04:03:35.888Z,0.00
2018-09-27T04:04:35.860Z,0.00
2018-09-27T04:05:36.038Z,0.00
2018-09-27T04:06:35.809Z,0.00
2018-09-27T04:07:35.788Z,0.00
2018-09-27T04:08:36.362Z,0.00
2018-09-27T04:09:35.730Z,0.00
2018-09-27T04:10:35.704Z,0.00
2018-09-27T04:11:35.678Z,0.00
2018-09-27T04:12:35.656Z,0.00
2018-09-27T04:13:35.627Z,0.00
2018-09-27T04:14:35.600Z,0.00
2018-09-27T04:15:35.573Z,0.00
2018-09-27T04:16:35.548Z,0.00
2018-09-27T04:17:35.523Z,0.00
2018-09-27T04:18:35.497Z,0.00
2018-09-27T04:19:35.471Z,0.00
2018-09-27T04:20:35.448Z,0.00
2018-09-27T04:21:35.418Z,0.00
2018-09-27T04:22:35.393Z,0.00
2018-09-27T04:23:35.366Z,0.00
2018-09-27T04:24:35.341Z,0.00
2018-09-27T04:25:35.314Z,0.00
2018-09-27T04:26:35.290Z,0.00
2018-09-27T04:27:35.263Z,0.00
2018-09-27T04:28:35.237Z,0.00
2018-09-27T04:29:35.213Z,0.00
2018-09-27T04:30:35.185Z,0.00
2018-09-27T04:31:35.160Z,0.00
2018-09-27T04:32:35.140Z,0.00
2018-09-27T04:33:35.110Z,0.00
2018-09-27T04:34:35.084Z,0.00
2018-09-27T04:35:35.060Z,0.00
2018-09-27T04:36:35.029Z,4.00
2018-09-27T04:37:35.003Z,4.00
2018-09-27T04:38:34.978Z,4.00
2018-09-27T04:39:34.953Z,0.00
2018-09-27T04:40:34.927Z,4.00
2018-09-27T04:41:34.899Z,8.00
2018-09-27T04:42:34.873Z,4.00
2018-09-27T04:43:34.851Z,4.00
2018-09-27T04:44:34.822Z,12.00
2018-09-27T04:45:34.795Z,8.00
2018-09-27T04:46:34.779Z,12.00
2018-09-27T04:47:34.744Z,12.00
2018-09-27T04:48:34.717Z,16.00
2018-09-27T04:49:34.691Z,24.00
2018-09-27T04:50:34.668Z,28.00
2018-09-27T04:51:34.652Z,32.00
2018-09-27T04:52:34.613Z,36.00
2018-09-27T04:53:34.588Z,44.00
2018-09-27T04:54:34.666Z,52.00
2018-09-27T04:55:34.536Z,68.00
2018-09-27T04:56:34.509Z,68.00
2018-09-27T04:57:34.486Z,80.00
2018-09-27T04:58:34.457Z,100.00
2018-09-27T04:59:34.432Z,116.00
2018-09-27T05:00:34.408Z,128.00
2018-09-27T05:01:34.382Z,144.00
2018-09-27T05:02:34.354Z,156.00
2018-09-27T05:03:34.478Z,188.00
2018-09-27T05:04:34.300Z,204.00
2018-09-27T05:05:34.275Z,240.00
2018-09-27T05:06:34.249Z,276.00
2018-09-27T05:07:34.227Z,308.00
2018-09-27T05:08:34.195Z,328.00
2018-09-27T05:09:34.241Z,376.00
2018-09-27T05:10:34.149Z,388.00
2018-09-27T05:11:34.119Z,452.00
2018-09-27T05:12:34.091Z,508.00
2018-09-27T05:13:34.066Z,544.00
2018-09-27T05:14:34.040Z,612.00
2018-09-27T05:15:34.036Z,648.00
2018-09-27T05:16:33.988Z,708.00
2018-09-27T05:17:33.962Z,768.00
2018-09-27T05:18:33.937Z,852.00
2018-09-27T05:19:33.908Z,884.00
2018-09-27T05:20:33.894Z,892.00
2018-09-27T05:21:33.905Z,1028.00
2018-09-27T05:22:33.830Z,1072.00
2018-09-27T05:23:33.805Z,1152.00
2018-09-27T05:24:33.777Z,1256.00
2018-09-27T05:25:33.752Z,1360.00
2018-09-27T05:26:33.726Z,1412.00
2018-09-27T05:27:33.716Z,1500.00
2018-09-27T05:28:33.674Z,1636.00
2018-09-27T05:29:33.647Z,1732.00
2018-09-27T05:30:33.624Z,1852.00
2018-09-27T05:31:33.596Z,2016.00
2018-09-27T05:32:33.569Z,1976.00
2018-09-27T05:33:33.607Z,2096.00
2018-09-27T05:34:33.517Z,2272.00
2018-09-27T05:35:33.490Z,2360.00
2018-09-27T05:36:33.464Z,2328.00
2018-09-27T05:37:33.437Z,2492.00
2018-09-27T05:38:33.412Z,2688.00
2018-09-27T05:39:33.447Z,2860.00
2018-09-27T05:40:33.360Z,2948.00
2018-09-27T05:41:33.334Z,2680.00
2018-09-27T05:42:33.308Z,2976.00
2018-09-27T05:43:33.281Z,2848.00
2018-09-27T05:44:33.257Z,2832.00
2018-09-27T05:45:33.257Z,2736.00
2018-09-27T05:46:33.209Z,2884.00
2018-09-27T05:47:33.177Z,2968.00
2018-09-27T05:48:33.150Z,3128.00
2018-09-27T05:49:33.133Z,3236.00
2018-09-27T05:50:33.099Z,3316.00
2018-09-27T05:51:33.115Z,3232.00
2018-09-27T05:52:33.046Z,3208.00
2018-09-27T05:53:33.023Z,3248.00
2018-09-27T05:54:32.994Z,3404.00
2018-09-27T05:55:32.969Z,3432.00
2018-09-27T05:56:32.941Z,3700.00
2018-09-27T05:57:33.006Z,3988.00
2018-09-27T05:58:32.890Z,4064.00
2018-09-27T05:59:32.865Z,4212.00
2018-09-27T06:00:32.839Z,4456.00
2018-09-27T06:01:32.816Z,4868.00
2018-09-27T06:02:32.789Z,4832.00
2018-09-27T06:03:32.788Z,5224.00
2018-09-27T06:04:32.735Z,5172.00
2018-09-27T06:05:32.715Z,5712.00
2018-09-27T06:06:32.682Z,6076.00
2018-09-27T06:07:32.657Z,5724.00
2018-09-27T06:08:32.629Z,5636.00
2018-09-27T06:09:32.641Z,6748.00
2018-09-27T06:10:32.578Z,6688.00
2018-09-27T06:11:32.621Z,7156.00
2018-09-27T06:12:32.525Z,7776.00
2018-09-27T06:13:32.499Z,8444.00
2018-09-27T06:14:32.476Z,8536.00
2018-09-27T06:15:32.510Z,10972.00
2018-09-27T06:16:32.421Z,9520.00
2018-09-27T06:17:32.394Z,10060.00
2018-09-27T06:18:32.370Z,8276.00
2018-09-27T06:19:33.192Z,8136.00
2018-09-27T06:20:32.319Z,9332.00
2018-09-27T06:21:32.344Z,8284.00
2018-09-27T06:22:32.266Z,10168.00
2018-09-27T06:23:32.258Z,10424.00
2018-09-27T06:24:32.217Z,10368.00
2018-09-27T06:25:32.189Z,8232.00
2018-09-27T06:26:32.163Z,12080.00
2018-09-27T06:27:32.198Z,14472.00
2018-09-27T06:28:32.109Z,9120.00
2018-09-27T06:29:32.085Z,10240.00
2018-09-27T06:30:32.060Z,11932.00
2018-09-27T06:31:32.035Z,11384.00
2018-09-27T06:32:32.009Z,10056.00
2018-09-27T06:33:32.013Z,12156.00
2018-09-27T06:34:32.159Z,8684.00
2018-09-27T06:36:56.434Z,9780.00
2018-09-27T06:37:59.839Z,11828.00
2018-09-27T06:38:56.383Z,12980.00
2018-09-27T06:39:56.358Z,12604.00
2018-09-27T06:40:56.332Z,9052.00
2018-09-27T06:41:56.311Z,12776.00
2018-09-27T06:42:56.079Z,10384.00
2018-09-27T06:43:56.052Z,13672.00
2018-09-27T06:44:56.033Z,10864.00
2018-09-27T06:45:56.003Z,12376.00
2018-09-27T06:46:56.178Z,12724.00
2018-09-27T06:47:55.950Z,15392.00
2018-09-27T06:48:55.929Z,10252.00
2018-09-27T06:49:55.898Z,12052.00
2018-09-27T06:50:55.873Z,15448.00
2018-09-27T06:51:55.853Z,14904.00
2018-09-27T06:52:55.822Z,11560.00
2018-09-27T06:53:55.798Z,15188.00
2018-09-27T06:54:55.805Z,16152.00
2018-09-27T06:55:56.117Z,15176.00
2018-09-27T06:56:55.940Z,17568.00
2018-09-27T06:57:55.694Z,15276.00
2018-09-27T06:58:55.670Z,14700.00
2018-09-27T06:59:55.643Z,16800.00
2018-09-27T07:00:55.656Z,18624.00
2018-09-27T07:01:55.598Z,17824.00
2018-09-27T07:02:55.567Z,14520.00
2018-09-27T07:03:55.542Z,17216.00
2018-09-27T07:04:55.636Z,17280.00
2018-09-27T07:05:55.491Z,17280.00
2018-09-27T07:06:55.466Z,19008.00
2018-09-27T07:07:55.444Z,21248.00
2018-09-27T07:08:55.436Z,19744.00
2018-09-27T07:09:55.391Z,24032.00
2018-09-27T07:10:55.365Z,23328.00
2018-09-27T07:11:55.381Z,22656.00
2018-09-27T07:12:55.365Z,14204.00
2018-09-27T07:13:55.290Z,10684.00
2018-09-27T07:14:55.268Z,10056.00
2018-09-27T07:15:55.240Z,13164.00
2018-09-27T07:16:55.223Z,15096.00
2018-09-27T07:17:55.191Z,13892.00
2018-09-27T07:18:55.166Z,13284.00
2018-09-27T07:19:55.144Z,15728.00
2018-09-27T07:20:55.127Z,24640.00
2018-09-27T07:21:55.091Z,17088.00
2018-09-27T07:22:55.066Z,13984.00
2018-09-27T07:23:55.043Z,15504.00
2018-09-27T07:24:55.017Z,19008.00
2018-09-27T07:25:54.992Z,17696.00
2018-09-27T07:26:55.031Z,23040.00
2018-09-27T07:27:54.946Z,35744.00
2018-09-27T07:28:54.921Z,37472.00
2018-09-27T07:29:54.891Z,30752.00
2018-09-27T07:30:54.875Z,26656.00
2018-09-27T07:31:54.847Z,25984.00
2018-09-27T07:32:54.827Z,22752.00
2018-09-27T07:33:54.793Z,31712.00
2018-09-27T07:34:54.767Z,28576.00
2018-09-27T07:35:54.744Z,32352.00
2018-09-27T07:36:54.720Z,34336.00
2018-09-27T07:37:54.695Z,27776.00
2018-09-27T07:38:54.679Z,25888.00
2018-09-27T07:39:54.648Z,25952.00
2018-09-27T07:40:54.624Z,23648.00
2018-09-27T07:41:54.611Z,25920.00
2018-09-27T07:42:54.582Z,22656.00
2018-09-27T07:43:54.552Z,22080.00
2018-09-27T07:44:54.531Z,21920.00
2018-09-27T07:45:54.503Z,21856.00
2018-09-27T07:46:54.479Z,25536.00
2018-09-27T07:47:54.456Z,19424.00
2018-09-27T07:48:54.431Z,19520.00
2018-09-27T07:49:54.406Z,20096.00
2018-09-27T07:50:54.383Z,20320.00
2018-09-27T07:51:54.360Z,21152.00
2018-09-27T07:52:54.339Z,22944.00
2018-09-27T07:53:54.560Z,27008.00
2018-09-27T07:54:54.319Z,44864.00
2018-09-27T07:55:54.261Z,45216.00
2018-09-27T07:56:54.238Z,34368.00
2018-09-27T07:57:54.213Z,54144.00
2018-09-27T07:58:54.204Z,51456.00
2018-09-27T07:59:54.164Z,48320.00
2018-09-27T08:00:54.142Z,50688.00
2018-09-27T08:01:54.120Z,38784.00
2018-09-27T08:02:54.236Z,35744.00
2018-09-27T08:03:54.075Z,39200.00
2018-09-27T08:04:54.051Z,30720.00
2018-09-27T08:05:54.028Z,33248.00
2018-09-27T08:06:54.003Z,46112.00
2018-09-27T08:07:53.979Z,42240.00
2018-09-27T08:08:53.963Z,40032.00
2018-09-27T08:09:53.935Z,28992.00
2018-09-27T08:10:53.947Z,31168.00
2018-09-27T08:11:53.933Z,60960.00
2018-09-27T08:12:53.872Z,57824.00
2018-09-27T08:13:54.044Z,56608.00
2018-09-27T08:14:53.822Z,46272.00
2018-09-27T08:15:53.798Z,41152.00
2018-09-27T08:16:53.846Z,45632.00
2018-09-27T08:17:53.752Z,43808.00
2018-09-27T08:18:53.730Z,22496.00
2018-09-27T08:19:53.708Z,43008.00
2018-09-27T08:20:53.713Z,50816.00
2018-09-27T08:21:53.662Z,37888.00
2018-09-27T08:22:53.642Z,35872.00
2018-09-27T08:23:53.646Z,52480.00
2018-09-27T08:24:53.599Z,47616.00
2018-09-27T08:25:53.577Z,47616.00
2018-09-27T08:26:53.559Z,46752.00
2018-09-27T08:27:53.533Z,58496.00
2018-09-27T08:28:53.714Z,41824.00
2018-09-27T08:29:53.499Z,52512.00
2018-09-27T08:30:53.585Z,54464.00
2018-09-27T08:31:53.450Z,35072.00
2018-09-27T08:32:53.425Z,27680.00
2018-09-27T08:33:53.403Z,29344.00
2018-09-27T08:34:53.382Z,32800.00
2018-09-27T08:35:53.362Z,37280.00
2018-09-27T08:36:53.338Z,44224.00
2018-09-27T08:37:53.317Z,44256.00
2018-09-27T08:38:53.301Z,31232.00
2018-09-27T08:39:53.273Z,28000.00
2018-09-27T08:40:53.252Z,29728.00
2018-09-27T08:41:53.229Z,40704.00
2018-09-27T08:42:53.208Z,49888.00
2018-09-27T08:43:53.188Z,57920.00
2018-09-27T08:44:53.399Z,57280.00
2018-09-27T08:45:53.181Z,53312.00
2018-09-27T08:46:53.121Z,40224.00
2018-09-27T08:47:53.100Z,33984.00
2018-09-27T08:48:53.078Z,27200.00
2018-09-27T08:49:53.056Z,33984.00
2018-09-27T08:50:53.036Z,42336.00
2018-09-27T08:51:53.016Z,47264.00
2018-09-27T08:52:52.994Z,48544.00
2018-09-27T08:53:52.971Z,46816.00
2018-09-27T08:54:52.960Z,48576.00
2018-09-27T08:55:52.979Z,41152.00
2018-09-27T08:56:52.908Z,45408.00
2018-09-27T08:57:52.886Z,42400.00
2018-09-27T08:58:52.866Z,37568.00
2018-09-27T08:59:52.851Z,33856.00
2018-09-27T09:00:52.824Z,38848.00
2018-09-27T09:01:52.806Z,41184.00
2018-09-27T09:02:52.783Z,46368.00
2018-09-27T09:03:52.766Z,48608.00
2018-09-27T09:04:52.766Z,51488.00
2018-09-27T09:05:52.725Z,51168.00
2018-09-27T09:06:52.698Z,49248.00
2018-09-27T09:07:52.677Z,50528.00
2018-09-27T09:08:52.657Z,52512.00
2018-09-27T09:09:52.640Z,56096.00
2018-09-27T09:10:52.624Z,54400.00
2018-09-27T09:11:52.807Z,55904.00
2018-09-27T09:12:52.777Z,57504.00
2018-09-27T09:13:52.554Z,58880.00
2018-09-27T09:14:52.534Z,58176.00
2018-09-27T09:15:52.519Z,58112.00
2018-09-27T09:16:53.106Z,59360.00
2018-09-27T09:17:52.677Z,62176.00
2018-09-27T09:18:52.454Z,64576.00
2018-09-27T09:19:52.637Z,53824.00
2018-09-27T09:20:52.617Z,48512.00
2018-09-27T09:21:52.397Z,38880.00
2018-09-27T09:22:52.375Z,34272.00
2018-09-27T09:23:52.360Z,38432.00
2018-09-27T09:24:52.352Z,41216.00
2018-09-27T09:25:52.320Z,46432.00
2018-09-27T09:26:52.295Z,56832.00
2018-09-27T09:27:52.276Z,38496.00
2018-09-27T09:28:52.256Z,31520.00
2018-09-27T09:29:52.274Z,41984.00
2018-09-27T09:30:52.218Z,59264.00
2018-09-27T09:31:52.195Z,46656.00
2018-09-27T09:32:52.178Z,66304.00
2018-09-27T09:33:52.167Z,67424.00
2018-09-27T09:34:52.441Z,66144.00
2018-09-27T09:35:52.126Z,65664.00
2018-09-27T09:36:52.305Z,66976.00
2018-09-27T09:37:52.281Z,66400.00
2018-09-27T09:38:52.056Z,65728.00
2018-09-27T09:39:52.888Z,68000.00
2018-09-27T09:40:52.021Z,69024.00
2018-09-27T09:41:51.996Z,65888.00
2018-09-27T09:42:51.978Z,65024.00
2018-09-27T09:43:52.162Z,66016.00
2018-09-27T09:44:51.941Z,66592.00
2018-09-27T09:45:51.921Z,68800.00
2018-09-27T09:46:51.901Z,69984.00
2018-09-27T09:47:52.083Z,69536.00
2018-09-27T09:48:52.069Z,70528.00
2018-09-27T09:49:51.892Z,72448.00
2018-09-27T09:50:51.823Z,66720.00
2018-09-27T09:51:51.807Z,72832.00
2018-09-27T09:52:51.785Z,72064.00
2018-09-27T09:53:51.765Z,71488.00
2018-09-27T09:54:51.744Z,76480.00
2018-09-27T09:55:51.929Z,60352.00
2018-09-27T09:56:51.909Z,46176.00
2018-09-27T09:57:51.687Z,77376.00
2018-09-27T09:58:51.870Z,73632.00
2018-09-27T09:59:51.649Z,40192.00
2018-09-27T10:00:51.833Z,70880.00
2018-09-27T10:01:51.611Z,69856.00
2018-09-27T10:02:51.590Z,69184.00
2018-09-27T10:03:51.572Z,69824.00
2018-09-27T10:04:51.555Z,74176.00
2018-09-27T10:05:51.533Z,74752.00
2018-09-27T10:06:51.513Z,70848.00
2018-09-27T10:07:51.700Z,71296.00
2018-09-27T10:08:51.524Z,72160.00
2018-09-27T10:09:51.456Z,73088.00
2018-09-27T10:10:51.439Z,77184.00
2018-09-27T10:11:51.419Z,69760.00
2018-09-27T10:12:51.400Z,63488.00
2018-09-27T10:13:51.388Z,75360.00
2018-09-27T10:14:51.381Z,75776.00
2018-09-27T10:15:51.344Z,72704.00
2018-09-27T10:16:51.324Z,76416.00
2018-09-27T10:17:51.304Z,70528.00
2018-09-27T10:18:51.288Z,72768.00
2018-09-27T10:19:51.266Z,70528.00
2018-09-27T10:20:51.248Z,71008.00
2018-09-27T10:21:51.416Z,72288.00
2018-09-27T10:22:51.209Z,32160.00
2018-09-27T10:23:51.190Z,68416.00
2018-09-27T10:24:51.172Z,66592.00
2018-09-27T10:25:51.167Z,37024.00
2018-09-27T10:26:51.139Z,37824.00
2018-09-27T10:27:51.114Z,33536.00
2018-09-27T10:28:51.094Z,29600.00
2018-09-27T10:29:51.077Z,25984.00
2018-09-27T10:30:51.056Z,28480.00
2018-09-27T10:31:51.037Z,33600.00
2018-09-27T10:32:51.018Z,28800.00
2018-09-27T10:33:51.006Z,25568.00
2018-09-27T10:34:50.977Z,25312.00
2018-09-27T10:35:51.160Z,24544.00
2018-09-27T10:36:51.140Z,24288.00
2018-09-27T10:37:51.118Z,21184.00
2018-09-27T10:38:51.102Z,21472.00
2018-09-27T10:39:51.079Z,25984.00
2018-09-27T10:40:51.063Z,30304.00
2018-09-27T10:41:50.838Z,36128.00
2018-09-27T10:42:50.814Z,26720.00
2018-09-27T10:43:50.998Z,29280.00
2018-09-27T10:44:50.832Z,32352.00
2018-09-27T10:45:50.752Z,28672.00
2018-09-27T10:46:50.730Z,26112.00
2018-09-27T10:47:50.710Z,27424.00
2018-09-27T10:48:50.688Z,28736.00
2018-09-27T10:49:50.666Z,32512.00
2018-09-27T10:50:50.645Z,31744.00
2018-09-27T10:51:50.625Z,34208.00
2018-09-27T10:52:50.645Z,31936.00
2018-09-27T10:53:50.581Z,34080.00
2018-09-27T10:54:50.561Z,56928.00
2018-09-27T10:55:50.539Z,67872.00
2018-09-27T10:56:50.519Z,43616.00
2018-09-27T10:57:50.496Z,40992.00
2018-09-27T10:58:50.477Z,46848.00
2018-09-27T10:59:50.457Z,45248.00
2018-09-27T11:00:50.454Z,42816.00
2018-09-27T11:01:50.415Z,40320.00
2018-09-27T11:02:50.391Z,43616.00
2018-09-27T11:03:50.371Z,49216.00
2018-09-27T11:04:50.355Z,45856.00
2018-09-27T11:05:50.328Z,42432.00
2018-09-27T11:06:50.309Z,80544.00
2018-09-27T11:07:50.305Z,52352.00
2018-09-27T11:08:50.266Z,58080.00
2018-09-27T11:09:50.246Z,89696.00
2018-09-27T11:10:50.236Z,51456.00
2018-09-27T11:11:50.205Z,57024.00
2018-09-27T11:12:50.186Z,66144.00
2018-09-27T11:13:50.164Z,46400.00
2018-09-27T11:14:50.146Z,44256.00
2018-09-27T11:15:50.125Z,52000.00
2018-09-27T11:16:50.112Z,59648.00
2018-09-27T11:17:50.084Z,77888.00
2018-09-27T11:18:50.066Z,75392.00
2018-09-27T11:19:50.047Z,61088.00
2018-09-27T11:20:50.027Z,72160.00
2018-09-27T11:21:50.062Z,56544.00
2018-09-27T11:22:49.996Z,69632.00
2018-09-27T11:23:49.973Z,55648.00
2018-09-27T11:24:50.150Z,72096.00
2018-09-27T11:25:49.934Z,33280.00
2018-09-27T11:26:49.908Z,32928.00
2018-09-27T11:27:49.897Z,32320.00
2018-09-27T11:28:49.900Z,41056.00
2018-09-27T11:29:49.868Z,60544.00
2018-09-27T11:30:49.834Z,37312.00
2018-09-27T11:31:49.811Z,49344.00
2018-09-27T11:32:49.796Z,91904.00
2018-09-27T11:33:49.771Z,37824.00
2018-09-27T11:34:49.752Z,37408.00
2018-09-27T11:35:49.738Z,35744.00
2018-09-27T11:36:49.714Z,33952.00
2018-09-27T11:37:49.693Z,35392.00
2018-09-27T11:38:49.674Z,42848.00
2018-09-27T11:39:49.654Z,30112.00
2018-09-27T11:40:49.633Z,39616.00
2018-09-27T11:41:49.615Z,32192.00
2018-09-27T11:42:49.639Z,33408.00
2018-09-27T11:43:49.583Z,37504.00
2018-09-27T11:44:49.554Z,34336.00
2018-09-27T11:45:49.543Z,44224.00
2018-09-27T11:46:49.515Z,82336.00
2018-09-27T11:47:49.498Z,45888.00
2018-09-27T11:48:49.516Z,43488.00
2018-09-27T11:49:49.559Z,64032.00
2018-09-27T11:50:49.433Z,86752.00
2018-09-27T11:51:49.625Z,74592.00
2018-09-27T11:52:49.596Z,80512.00
2018-09-27T11:53:49.576Z,70720.00
2018-09-27T11:54:49.364Z,34368.00
2018-09-27T11:55:49.360Z,40320.00
2018-09-27T11:56:49.313Z,41344.00
2018-09-27T11:57:49.294Z,36832.00
2018-09-27T11:58:49.273Z,33120.00
2018-09-27T11:59:49.267Z,28192.00
2018-09-27T12:00:49.234Z,27744.00
2018-09-27T12:01:49.229Z,27328.00
2018-09-27T12:02:49.194Z,31200.00
2018-09-27T12:03:49.212Z,29984.00
2018-09-27T12:04:49.357Z,29952.00
2018-09-27T12:05:49.137Z,32096.00
2018-09-27T12:06:49.117Z,28672.00
2018-09-27T12:07:49.097Z,36480.00
2018-09-27T12:08:49.276Z,31136.00
2018-09-27T12:09:49.056Z,29984.00
2018-09-27T12:10:49.033Z,78432.00
2018-09-27T12:11:49.069Z,37888.00
2018-09-27T12:12:49.195Z,31552.00
2018-09-27T12:13:48.975Z,33024.00
2018-09-27T12:14:48.950Z,75168.00
2018-09-27T12:15:48.931Z,36704.00
2018-09-27T12:16:49.026Z,34272.00
2018-09-27T12:17:48.899Z,38560.00
2018-09-27T12:18:48.869Z,47040.00
2018-09-27T12:19:48.857Z,41152.00
2018-09-27T12:20:48.835Z,38400.00
2018-09-27T12:21:48.808Z,38336.00
2018-09-27T12:22:48.798Z,37184.00
2018-09-27T12:23:48.767Z,37312.00
2018-09-27T12:24:48.746Z,57888.00